Time;durP1;ratioP1;P1;durP2;ratioP2;P2;SDS_P1;SDS_P2;PMS_P1;PMS_P2;Temp;Humidity;BMP_temperature;BMP_pressure;BME280_temperature;BME280_humidity;BME280_pressure;Samples;Min_cycle;Max_cycle;Signal;HPM_P1;HPM_P2
2024/01/01 00:00:12;;;;;;;;;;;;;;;5.05;100.00;99918.53;5017882;28;20179;-74
2024/01/01 00:02:38;;;;;;;34.00;19.15;;;;;;;5.01;100.00;99918.22;5020416;28;19939;-78
2024/01/01 00:05:04;;;;;;;27.52;16.98;;;;;;;5.02;100.00;99917.19;5028111;28;20805;-75
2024/01/01 00:07:31;;;;;;;29.83;17.27;;;;;;;5.00;100.00;99908.66;5038171;28;20049;-74
2024/01/01 00:09:57;;;;;;;27.95;15.65;;;;;;;5.02;100.00;99909.22;5033327;28;20040;-73
2024/01/01 00:12:23;;;;;;;29.67;16.00;;;;;;;5.00;100.00;99905.19;5027026;28;20083;-72
2024/01/01 00:14:50;;;;;;;28.58;14.10;;;;;;;4.97;100.00;99901.22;4997298;28;20049;-75
2024/01/01 00:17:15;;;;;;;27.40;14.50;;;;;;;4.97;100.00;99906.50;5024478;28;20528;-78
2024/01/01 00:19:41;;;;;;;24.83;13.07;;;;;;;4.95;100.00;99902.53;5027920;28;20076;-76
2024/01/01 00:22:07;;;;;;;25.45;11.68;;;;;;;4.96;100.00;99899.63;5028284;28;20029;-76
2024/01/01 00:24:36;;;;;;;23.30;12.18;;;;;;;4.93;100.00;99894.78;5002896;28;20040;-77
2024/01/01 00:27:02;;;;;;;28.50;13.30;;;;;;;4.92;100.00;99888.69;5002517;28;20037;-74
2024/01/01 00:29:28;;;;;;;25.00;13.75;;;;;;;4.89;100.00;99893.72;5030041;28;20037;-78
2024/01/01 00:31:54;;;;;;;21.58;12.02;;;;;;;4.87;100.00;99893.16;5020132;28;20759;-79
2024/01/01 00:34:20;;;;;;;21.90;11.73;;;;;;;4.86;100.00;99880.94;5018383;28;20033;-79
2024/01/01 00:36:47;;;;;;;21.30;10.52;;;;;;;4.86;100.00;99883.59;5010500;28;20037;-79
2024/01/01 00:39:14;;;;;;;21.50;10.60;;;;;;;4.84;100.00;99883.06;5031800;28;20049;-76
2024/01/01 00:41:40;;;;;;;18.73;10.40;;;;;;;4.84;100.00;99891.00;5012563;28;20100;-80
2024/01/01 00:44:06;;;;;;;18.02;9.38;;;;;;;4.80;100.00;99893.34;5030855;28;20044;-74
2024/01/01 00:46:32;;;;;;;17.35;8.85;;;;;;;4.77;100.00;99887.78;4999762;28;20105;-79
2024/01/01 00:48:58;;;;;;;16.02;7.95;;;;;;;4.75;100.00;99893.34;5007163;28;20103;-79
2024/01/01 00:51:24;;;;;;;17.10;8.10;;;;;;;4.76;100.00;99894.13;5028985;28;20039;-80
2024/01/01 00:53:51;;;;;;;19.25;8.18;;;;;;;4.75;100.00;99897.84;4997711;28;20661;-77
2024/01/01 00:56:17;;;;;;;15.80;8.20;;;;;;;4.73;100.00;99905.22;5033695;28;20045;-78
2024/01/01 00:58:42;;;;;;;18.08;7.60;;;;;;;4.69;100.00;99896.19;5032579;28;20028;-79
2024/01/01 01:01:08;;;;;;;17.33;7.82;;;;;;;4.68;100.00;99902.53;5043207;28;20029;-73
2024/01/01 01:03:35;;;;;;;16.23;7.53;;;;;;;4.67;100.00;99896.41;5028679;28;20510;-80
2024/01/01 01:06:02;;;;;;;16.45;7.03;;;;;;;4.61;100.00;99892.94;5013058;28;20045;-79
2024/01/01 01:08:28;;;;;;;19.08;7.70;;;;;;;4.58;100.00;99890.78;5024743;28;20033;-78
2024/01/01 01:10:54;;;;;;;18.30;7.72;;;;;;;4.56;100.00;99900.84;5025436;28;20078;-76
2024/01/01 01:13:20;;;;;;;18.13;7.45;;;;;;;4.55;100.00;99899.25;5013607;28;20037;-78
2024/01/01 01:15:46;;;;;;;13.65;6.03;;;;;;;4.54;100.00;99896.81;5012664;28;20037;-80
2024/01/01 01:18:12;;;;;;;17.20;7.03;;;;;;;4.54;100.00;99894.16;5035069;28;20032;-78
2024/01/01 01:20:37;;;;;;;16.38;6.82;;;;;;;4.52;100.00;99902.38;5001894;28;20123;-75
2024/01/01 01:23:04;;;;;;;16.50;7.38;;;;;;;4.53;100.00;99911.13;5003178;28;20041;-75
2024/01/01 01:25:31;;;;;;;16.55;6.93;;;;;;;4.51;100.00;99915.88;5030630;28;20122;-78
2024/01/01 01:28:01;;;;;;;19.02;7.40;;;;;;;4.52;100.00;99928.09;5010674;28;20069;-75
2024/01/01 01:30:27;;;;;;;16.05;7.60;;;;;;;4.51;100.00;99932.59;5001590;28;20065;-76
2024/01/01 01:32:53;;;;;;;13.38;6.97;;;;;;;4.51;100.00;99927.28;5028814;28;20160;-74
2024/01/01 01:35:18;;;;;;;16.63;7.45;;;;;;;4.52;100.00;99923.59;4994285;28;20118;-73
2024/01/01 01:37:44;;;;;;;12.00;6.28;;;;;;;4.54;100.00;99929.47;5025965;28;20483;-77
2024/01/01 01:40:10;;;;;;;16.05;6.35;;;;;;;4.56;100.00;99919.41;5031870;28;20148;-77
2024/01/01 01:42:36;;;;;;;9.90;5.63;;;;;;;4.57;100.00;99918.34;5028040;28;20040;-75
2024/01/01 01:45:03;;;;;;;14.75;6.35;;;;;;;4.59;100.00;99924.19;5026597;28;20030;-75
2024/01/01 01:47:29;;;;;;;12.75;5.72;;;;;;;4.62;100.00;99920.25;5010601;28;20037;-74
2024/01/01 01:49:55;;;;;;;15.10;5.78;;;;;;;4.64;100.00;99929.56;5033269;28;20212;-77
2024/01/01 01:52:22;;;;;;;11.95;5.72;;;;;;;4.66;100.00;99922.13;5025665;28;20041;-72
2024/01/01 01:54:51;;;;;;;10.70;4.63;;;;;;;4.69;100.00;99917.41;5017669;28;20053;-73
2024/01/01 01:57:17;;;;;;;11.15;4.32;;;;;;;4.74;100.00;99912.13;5029771;28;20124;-74
2024/01/01 01:59:44;;;;;;;15.65;4.72;;;;;;;4.76;100.00;99910.03;5009075;28;20029;-73
2024/01/01 02:02:12;;;;;;;12.05;4.50;;;;;;;4.80;100.00;99922.53;5014707;28;20033;-72
2024/01/01 02:04:38;;;;;;;10.98;4.57;;;;;;;4.84;100.00;99925.50;5009923;28;20029;-74
2024/01/01 02:07:04;;;;;;;9.30;4.15;;;;;;;4.89;100.00;99920.25;5006928;28;20037;-73
2024/01/01 02:09:31;;;;;;;12.13;4.72;;;;;;;4.95;100.00;99921.91;5014501;28;20037;-71
2024/01/01 02:11:57;;;;;;;;;;;;;;;4.99;100.00;99916.88;5017447;28;20121;-74
2024/01/01 02:14:24;;;;;;;10.35;4.90;;;;;;;5.02;100.00;99919.84;5023671;28;19921;-73
2024/01/01 02:16:49;;;;;;;10.40;4.90;;;;;;;5.06;100.00;99923.56;5035504;28;20041;-73
2024/01/01 02:19:24;;;;;;;11.93;4.50;;;;;;;5.10;100.00;99915.91;5037521;28;20120;-74
2024/01/01 02:21:51;;;;;;;13.43;4.93;;;;;;;5.14;100.00;99909.03;5026726;28;20422;-73
2024/01/01 02:24:18;;;;;;;10.80;4.90;;;;;;;5.18;100.00;99918.91;5031530;28;20044;-75
2024/01/01 02:26:45;;;;;;;9.43;5.15;;;;;;;5.24;100.00;99921.59;5016821;28;20032;-75
2024/01/01 02:29:15;;;;;;;13.20;5.93;;;;;;;5.26;100.00;99916.81;4997984;28;20094;-71
2024/01/01 02:31:42;;;;;;;13.90;5.82;;;;;;;5.30;100.00;99908.09;5030720;28;20094;-75
2024/01/01 02:34:08;;;;;;;13.70;5.97;;;;;;;5.33;100.00;99910.25;5006108;28;20041;-77
2024/01/01 02:36:38;;;;;;;14.25;5.70;;;;;;;5.38;100.00;99912.13;5014551;28;20043;-74
2024/01/01 02:39:06;;;;;;;10.65;5.28;;;;;;;5.39;100.00;99911.06;5034084;28;20026;-76
2024/01/01 02:41:35;;;;;;;9.70;4.95;;;;;;;5.41;100.00;99916.91;5020738;28;20099;-77
2024/01/01 02:44:02;;;;;;;11.35;5.35;;;;;;;5.43;100.00;99915.63;5017199;28;20399;-75
2024/01/01 02:46:27;;;;;;;11.32;5.40;;;;;;;5.45;100.00;99913.50;5001391;28;20072;-75
2024/01/01 02:48:53;;;;;;;;;;;;;;;5.48;100.00;99917.50;5032282;28;20078;-75
2024/01/01 02:51:19;;;;;;;12.23;5.32;;;;;;;5.50;100.00;99912.75;5015006;28;19960;-74
2024/01/01 02:53:45;;;;;;;10.38;5.15;;;;;;;5.50;100.00;99915.41;5029655;28;20044;-75
2024/01/01 02:56:15;;;;;;;14.50;5.70;;;;;;;5.51;100.00;99917.00;5021345;28;20064;-74
2024/01/01 02:58:41;;;;;;;13.05;6.32;;;;;;;5.52;100.00;99923.91;5029150;28;20029;-75
2024/01/01 03:01:07;;;;;;;10.43;5.97;;;;;;;5.53;100.00;99914.88;5017001;28;20029;-77
2024/01/01 03:03:33;;;;;;;13.20;5.95;;;;;;;5.51;100.00;99921.53;5023005;28;20475;-75
2024/01/01 03:05:59;;;;;;;14.57;6.40;;;;;;;5.52;100.00;99917.81;5030829;28;20107;-74
2024/01/01 03:08:26;;;;;;;14.63;6.18;;;;;;;5.51;100.00;99919.66;5023437;28;20028;-74
2024/01/01 03:10:51;;;;;;;13.00;5.82;;;;;;;5.51;100.00;99917.00;5036146;28;20037;-72
2024/01/01 03:13:17;;;;;;;16.17;6.43;;;;;;;5.51;100.00;99910.91;5026508;28;20048;-74
2024/01/01 03:15:43;;;;;;;13.43;7.20;;;;;;;5.50;100.00;99915.41;4999480;28;20625;-74
2024/01/01 03:18:11;;;;;;;12.70;6.97;;;;;;;5.52;100.00;99912.50;5025996;28;20045;-74
2024/01/01 03:20:37;;;;;;;12.35;6.65;;;;;;;5.51;100.00;99917.00;5032081;28;20064;-73
2024/01/01 03:23:04;;;;;;;12.85;6.65;;;;;;;5.52;100.00;99913.28;5024639;28;20037;-74
2024/01/01 03:25:37;;;;;;;15.85;7.60;;;;;;;5.51;100.00;99906.38;5024238;28;20045;-74
2024/01/01 03:28:14;;;;;;;15.98;7.13;;;;;;;5.52;100.00;99909.84;5033605;28;20498;-75
2024/01/01 03:30:43;;;;;;;15.85;6.88;;;;;;;5.51;100.00;99908.25;5036520;28;20124;-75
2024/01/01 03:33:09;;;;;;;14.48;7.35;;;;;;;5.52;100.00;99917.81;5026933;28;20051;-74
2024/01/01 03:35:35;;;;;;;16.30;7.43;;;;;;;5.51;100.00;99914.34;5001261;28;20127;-76
2024/01/01 03:38:01;;;;;;;13.75;7.15;;;;;;;5.53;100.00;99914.88;5026351;28;20029;-75
2024/01/01 03:40:27;;;;;;;17.23;8.23;;;;;;;5.53;100.00;99914.09;5036634;28;20029;-75
2024/01/01 03:42:54;;;;;;;13.32;7.13;;;;;;;5.54;100.00;99911.16;5030245;28;20021;-74
2024/01/01 03:45:21;;;;;;;13.32;7.72;;;;;;;5.56;100.00;99902.97;5007094;28;20041;-74
2024/01/01 03:47:46;;;;;;;12.93;7.45;;;;;;;5.60;100.00;99909.34;5031257;28;20406;-75
2024/01/01 03:50:14;;;;;;;15.50;7.28;;;;;;;5.62;100.00;99908.06;5025153;28;20057;-77
2024/01/01 03:52:40;;;;;;;17.27;8.27;;;;;;;5.66;100.00;99916.28;5011004;28;20055;-75
2024/01/01 03:55:07;;;;;;;18.33;8.32;;;;;;;5.67;100.00;99905.41;5033992;28;20083;-74
2024/01/01 03:57:33;;;;;;;14.13;7.43;;;;;;;5.68;100.00;99912.31;5030695;28;20041;-76
2024/01/01 03:59:59;;;;;;;15.25;7.80;;;;;;;5.69;100.00;99907.78;5035295;28;20049;-75
2024/01/01 04:02:26;;;;;;;13.30;7.30;;;;;;;5.71;100.00;99905.69;5012147;28;20087;-75
2024/01/01 04:04:52;;;;;;;13.63;7.10;;;;;;;5.73;100.00;99904.38;5022561;28;20041;-74
2024/01/01 04:07:17;;;;;;;17.55;7.22;;;;;;;5.74;100.00;99907.84;5004413;28;20073;-74
2024/01/01 04:09:46;;;;;;;15.43;7.85;;;;;;;5.76;100.00;99908.41;5040161;28;20832;-73
2024/01/01 04:12:11;;;;;;;14.77;7.93;;;;;;;5.77;100.00;99910.00;5037839;28;20133;-74
2024/01/01 04:14:39;;;;;;;18.05;8.27;;;;;;;5.79;100.00;99905.22;5017311;28;20690;-73
2024/01/01 04:17:10;;;;;;;14.15;7.47;;;;;;;5.80;100.00;99909.47;5006288;28;20037;-73
2024/01/01 04:19:35;;;;;;;15.07;8.20;;;;;;;5.82;100.00;99906.53;5020212;28;20058;-74
2024/01/01 04:22:01;;;;;;;12.40;6.82;;;;;;;5.82;100.00;99906.53;5040682;28;20046;-75
2024/01/01 04:24:27;;;;;;;13.57;7.10;;;;;;;5.82;100.00;99912.66;5029797;28;20036;-73
2024/01/01 04:26:55;;;;;;;15.88;7.30;;;;;;;5.82;100.00;99911.84;5012769;28;20146;-75
2024/01/01 04:29:20;;;;;;;15.05;8.00;;;;;;;5.82;100.00;99909.19;5005013;28;20823;-76
2024/01/01 04:31:46;;;;;;;16.33;7.28;;;;;;;5.81;100.00;99911.06;5026674;28;20036;-79
2024/01/01 04:34:13;;;;;;;16.05;6.95;;;;;;;5.82;100.00;99909.19;5015851;28;20080;-75
2024/01/01 04:36:40;;;;;;;14.63;7.32;;;;;;;5.83;100.00;99903.66;4990355;28;20410;-73
2024/01/01 04:39:06;;;;;;;16.08;6.40;;;;;;;5.86;100.00;99912.94;5020787;28;20131;-72
2024/01/01 04:41:32;;;;;;;12.27;7.00;;;;;;;5.89;100.00;99917.72;5030817;28;20079;-74
2024/01/01 04:43:57;;;;;;;12.98;6.65;;;;;;;5.91;100.00;99915.66;5021960;28;20049;-72
2024/01/01 04:46:23;;;;;;;14.05;7.00;;;;;;;5.96;100.00;99913.00;5025411;28;20099;-73
2024/01/01 04:48:49;;;;;;;14.48;7.15;;;;;;;5.96;100.00;99911.19;5018160;28;20032;-76
2024/01/01 04:51:14;;;;;;;14.65;7.05;;;;;;;5.97;100.00;99909.31;5020764;28;20057;-76
2024/01/01 04:53:40;;;;;;;13.38;7.03;;;;;;;5.96;100.00;99900.56;5014240;28;20036;-75
2024/01/01 04:56:06;;;;;;;16.40;6.93;;;;;;;5.97;100.00;99906.66;5013828;28;20120;-78
2024/01/01 04:58:33;;;;;;;14.95;6.95;;;;;;;5.97;100.00;99904.00;5026758;28;20036;-75
2024/01/01 05:01:00;;;;;;;11.30;6.40;;;;;;;5.99;100.00;99901.88;5034633;28;20043;-75
2024/01/01 05:03:26;;;;;;;12.90;6.32;;;;;;;5.99;100.00;99902.69;5014163;28;20053;-76
2024/01/01 05:05:52;;;;;;;12.02;6.30;;;;;;;5.99;100.00;99896.56;5028742;28;20039;-76
2024/01/01 05:08:18;;;;;;;14.10;5.93;;;;;;;6.00;100.00;99898.16;5031944;28;20063;-76
2024/01/01 05:10:43;;;;;;;11.95;5.82;;;;;;;6.01;100.00;99894.44;5021818;28;20080;-75
2024/01/01 05:13:09;;;;;;;13.98;5.70;;;;;;;6.02;100.00;99896.03;5032719;28;20908;-77
2024/01/01 05:15:35;;;;;;;11.40;5.15;;;;;;;6.03;100.00;99897.66;5002341;28;20033;-76
2024/01/01 05:18:01;;;;;;;10.93;5.20;;;;;;;6.05;100.00;99900.84;5028635;28;20029;-76
2024/01/01 05:20:26;;;;;;;12.60;5.13;;;;;;;6.09;100.00;99906.44;5033054;28;20068;-77
2024/01/01 05:22:52;;;;;;;11.90;4.82;;;;;;;6.11;100.00;99894.50;5033527;28;20523;-75
2024/01/01 05:25:17;;;;;;;15.43;5.03;;;;;;;6.13;100.00;99889.69;5010178;28;20443;-77
2024/01/01 05:27:43;;;;;;;10.75;5.22;;;;;;;6.15;100.00;99887.56;5015181;28;20052;-76
2024/01/01 05:30:09;;;;;;;9.70;4.43;;;;;;;6.17;100.00;99879.38;5028854;28;20098;-76
2024/01/01 05:32:34;;;;;;;9.85;4.70;;;;;;;6.17;100.00;99882.81;5018052;28;20142;-76
2024/01/01 05:35:01;;;;;;;10.23;4.57;;;;;;;6.19;100.00;99879.88;5031987;28;20055;-76
2024/01/01 05:37:27;;;;;;;10.15;4.50;;;;;;;6.20;100.00;99876.16;5031726;28;20840;-77
2024/01/01 05:39:54;;;;;;;9.05;4.85;;;;;;;6.23;100.00;99881.78;5017709;28;20604;-76
2024/01/01 05:42:20;;;;;;;11.75;4.13;;;;;;;6.24;100.00;99885.22;5016405;28;20120;-75
2024/01/01 05:44:46;;;;;;;9.40;4.00;;;;;;;6.26;100.00;99880.44;5030666;28;20108;-76
2024/01/01 05:47:11;;;;;;;10.20;4.38;;;;;;;6.29;100.00;99885.22;5003029;28;20071;-75
2024/01/01 05:49:37;;;;;;;7.53;4.15;;;;;;;6.29;100.00;99880.69;5034115;28;20416;-78
2024/01/01 05:52:03;;;;;;;8.48;3.70;;;;;;;6.29;100.00;99886.03;5020369;28;20029;-77
2024/01/01 05:54:28;;;;;;;9.25;3.47;;;;;;;6.29;100.00;99890.53;5030226;28;20037;-78
2024/01/01 05:56:54;;;;;;;9.98;3.95;;;;;;;6.29;100.00;99880.69;5027629;28;20114;-76
2024/01/01 05:59:20;;;;;;;10.90;4.03;;;;;;;6.30;100.00;99889.50;5016994;28;20482;-76
2024/01/01 06:01:46;;;;;;;7.07;3.75;;;;;;;6.31;100.00;99882.31;5032933;28;20033;-75
2024/01/01 06:04:12;;;;;;;7.35;3.53;;;;;;;6.31;100.00;99887.66;5035017;28;20125;-76
2024/01/01 06:06:37;;;;;;;7.40;3.70;;;;;;;6.33;100.00;99898.81;5036468;28;20402;-75
2024/01/01 06:09:03;;;;;;;9.13;3.35;;;;;;;6.32;100.00;99899.88;5042456;28;20029;-77
2024/01/01 06:11:29;;;;;;;9.77;4.20;;;;;;;6.31;100.00;99908.91;5009470;28;20559;-78
2024/01/01 06:13:54;;;;;;;9.65;4.05;;;;;;;6.31;100.00;99914.22;5016015;28;20040;-79
2024/01/01 06:16:20;;;;;;;10.20;3.65;;;;;;;6.29;100.00;99901.97;5024716;28;20069;-78
2024/01/01 06:18:46;;;;;;;9.38;3.60;;;;;;;6.28;100.00;99908.34;5037795;28;20060;-75
2024/01/01 06:21:11;;;;;;;6.80;3.30;;;;;;;6.27;100.00;99906.75;5039825;28;20044;-75
2024/01/01 06:23:39;;;;;;;8.88;3.45;;;;;;;6.28;100.00;99911.03;5027641;28;20029;-75
2024/01/01 06:26:05;;;;;;;9.27;4.10;;;;;;;6.26;100.00;99907.03;5034766;28;20059;-75
2024/01/01 06:28:30;;;;;;;8.02;3.17;;;;;;;6.26;100.00;99907.84;5032316;28;20422;-78
2024/01/01 06:30:56;;;;;;;8.68;3.05;;;;;;;6.25;100.00;99922.19;5021110;28;20063;-76
2024/01/01 06:33:22;;;;;;;7.25;3.10;;;;;;;6.22;100.00;99906.75;5033175;28;20069;-74
2024/01/01 06:35:47;;;;;;;9.25;3.55;;;;;;;6.20;100.00;99898.22;5033411;28;20116;-75
2024/01/01 06:38:13;;;;;;;7.82;3.05;;;;;;;6.19;100.00;99909.94;5020352;28;20537;-77
2024/01/01 06:40:39;;;;;;;9.07;3.55;;;;;;;6.13;100.00;99903.00;5033191;28;20072;-77
2024/01/01 06:43:05;;;;;;;8.05;3.30;;;;;;;6.10;100.00;99906.19;4999698;28;20037;-76
2024/01/01 06:45:31;;;;;;;9.63;3.60;;;;;;;6.09;100.00;99912.53;5037399;28;20498;-75
2024/01/01 06:47:56;;;;;;;10.30;2.85;;;;;;;6.04;100.00;99919.72;5007577;28;20033;-78
2024/01/01 06:50:23;;;;;;;9.10;3.45;;;;;;;6.01;100.00;99926.34;5040059;28;20121;-76
2024/01/01 06:52:48;;;;;;;11.25;3.55;;;;;;;5.95;100.00;99920.19;5032484;28;20038;-76
2024/01/01 06:55:17;;;;;;;10.90;3.70;;;;;;;5.91;100.00;99926.28;5023058;28;20106;-77
2024/01/01 06:57:43;;;;;;;9.88;3.30;;;;;;;5.92;100.00;99931.34;5037364;28;20039;-77
2024/01/01 07:00:09;;;;;;;7.68;2.92;;;;;;;5.89;100.00;99928.38;5016872;28;20036;-76
2024/01/01 07:02:36;;;;;;;13.52;3.72;;;;;;;5.88;100.00;99932.88;5029189;28;20030;-76
2024/01/01 07:05:02;;;;;;;8.77;3.30;;;;;;;5.86;100.00;99934.22;5032453;28;20028;-77
2024/01/01 07:07:28;;;;;;;10.27;3.00;;;;;;;5.85;100.00;99944.03;5038954;28;20044;-76
2024/01/01 07:09:54;;;;;;;7.57;3.40;;;;;;;5.86;100.00;99939.53;5034149;28;20037;-75
2024/01/01 07:12:27;;;;;;;4.28;2.53;;;;;;;5.87;100.00;99944.56;5019441;28;20036;-75
2024/01/01 07:14:54;;;;;;;7.15;2.95;;;;;;;5.87;100.00;99941.13;5035913;28;20093;-75
2024/01/01 07:17:20;;;;;;;6.95;2.92;;;;;;;5.88;100.00;99943.50;5007350;28;20040;-74
2024/01/01 07:19:47;;;;;;;7.55;2.78;;;;;;;5.88;100.00;99953.34;5027999;28;20089;-75
2024/01/01 07:22:13;;;;;;;8.55;2.88;;;;;;;5.89;100.00;99944.31;5032219;28;20087;-76
2024/01/01 07:24:40;;;;;;;9.23;3.10;;;;;;;5.89;100.00;99939.81;5025911;28;20033;-75
2024/01/01 07:27:08;;;;;;;7.07;2.60;;;;;;;5.90;100.00;99940.63;5014764;28;20073;-75
2024/01/01 07:29:34;;;;;;;9.15;2.78;;;;;;;5.93;100.00;99940.13;5015263;28;20289;-76
2024/01/01 07:31:59;;;;;;;10.48;3.35;;;;;;;5.94;100.00;99941.72;5030385;28;20512;-75
2024/01/01 07:34:26;;;;;;;5.72;2.40;;;;;;;5.93;100.00;99943.56;5024375;28;20045;-75
2024/01/01 07:36:51;;;;;;;;;;;;;;;5.94;100.00;99947.03;5017908;28;20511;-78
2024/01/01 07:39:19;;;;;;;6.82;2.60;;;;;;;5.94;100.00;99952.34;5037950;28;19917;-75
2024/01/01 07:41:48;;;;;;;6.70;3.40;;;;;;;5.94;100.00;99953.16;5003750;28;20044;-76
2024/01/01 07:44:14;;;;;;;8.50;3.13;;;;;;;5.92;100.00;99955.28;5014347;28;20496;-77
2024/01/01 07:46:44;;;;;;;7.22;2.83;;;;;;;5.91;100.00;99958.19;5005556;28;20132;-75
2024/01/01 07:49:10;;;;;;;8.68;3.13;;;;;;;5.87;100.00;99957.84;5033480;28;20403;-74
2024/01/01 07:51:35;;;;;;;10.00;3.03;;;;;;;5.89;100.00;99957.59;5032954;28;20028;-76
2024/01/01 07:54:01;;;;;;;8.57;2.63;;;;;;;5.88;100.00;99958.66;5038162;28;20068;-76
2024/01/01 07:56:30;;;;;;;7.47;3.10;;;;;;;5.90;100.00;99949.38;5042058;28;20052;-76
2024/01/01 07:58:56;;;;;;;9.90;3.45;;;;;;;5.88;100.00;99950.69;5018825;28;20041;-75
2024/01/01 08:01:24;;;;;;;7.43;2.60;;;;;;;5.89;100.00;99954.94;5026666;28;20041;-74
2024/01/01 08:03:49;;;;;;;7.28;3.33;;;;;;;5.87;100.00;99947.22;5008466;28;20538;-74
2024/01/01 08:06:17;;;;;;;6.97;2.55;;;;;;;5.87;100.00;99946.44;5038697;28;20144;-76
2024/01/01 08:08:43;;;;;;;6.28;2.65;;;;;;;5.88;100.00;99942.72;5037347;28;20038;-74
2024/01/01 08:11:09;;;;;;;7.57;2.60;;;;;;;5.88;100.00;99948.03;5032306;28;20033;-74
2024/01/01 08:13:36;;;;;;;6.82;2.75;;;;;;;5.88;100.00;99948.81;5035497;28;20041;-75
2024/01/01 08:16:02;;;;;;;9.38;2.90;;;;;;;5.87;100.00;99949.88;5030616;28;20110;-75
2024/01/01 08:18:28;;;;;;;;;;;;;;;5.89;100.00;99949.63;5039022;28;20112;-74
2024/01/01 08:20:54;;;;;;;5.97;2.88;;;;;;;5.88;100.00;99948.03;5041339;28;19990;-75
2024/01/01 08:23:20;;;;;;;;;;;;;;;5.90;100.00;99959.22;5037840;28;20022;-75
2024/01/01 08:25:46;;;;;;;7.50;2.55;;;;;;;5.88;100.00;99948.03;5038831;28;19978;-76
2024/01/01 08:28:12;;;;;;;8.73;2.92;;;;;;;5.88;100.00;99953.34;5035246;28;20538;-73
2024/01/01 08:30:39;;;;;;;6.57;2.83;;;;;;;5.88;100.00;99951.47;5031156;28;20041;-74
2024/01/01 08:33:05;;;;;;;10.27;3.35;;;;;;;5.87;100.00;99957.06;5039256;28;20033;-75
2024/01/01 08:35:32;;;;;;;;;;;;;;;5.90;100.00;99967.19;5041373;28;20112;-75
2024/01/01 08:37:58;;;;;;;6.38;2.70;;;;;;;5.88;100.00;99963.97;5023347;28;19963;-74
2024/01/01 08:40:23;;;;;;;5.00;2.38;;;;;;;5.91;100.00;99971.47;5028214;28;20049;-74
2024/01/01 08:42:50;;;;;;;7.82;2.60;;;;;;;5.89;100.00;99968.22;5036000;28;20946;-75
2024/01/01 08:45:19;;;;;;;7.63;2.50;;;;;;;5.93;100.00;99967.50;5041970;28;20544;-74
2024/01/01 08:47:48;;;;;;;7.35;2.42;;;;;;;5.95;100.00;99967.22;5039229;28;20049;-76
2024/01/01 08:50:14;;;;;;;7.03;2.58;;;;;;;5.98;100.00;99969.38;5028249;28;20120;-74
2024/01/01 08:52:42;;;;;;;7.00;2.25;;;;;;;5.98;100.00;99975.50;5035428;28;20049;-74
2024/01/01 08:55:09;;;;;;;7.10;2.38;;;;;;;5.99;100.00;99976.31;5038319;28;20383;-73
2024/01/01 08:57:34;;;;;;;8.02;2.60;;;;;;;5.98;100.00;99975.50;5024202;28;20784;-75
2024/01/01 09:00:04;;;;;;;5.28;2.58;;;;;;;5.98;100.00;99980.03;5048892;28;20436;-74
2024/01/01 09:02:30;;;;;;;9.82;2.67;;;;;;;5.96;100.00;99982.94;5023943;28;20037;-75
2024/01/01 09:04:55;;;;;;;9.73;2.80;;;;;;;5.93;100.00;99982.63;5033864;28;20037;-75
2024/01/01 09:07:23;;;;;;;11.57;2.53;;;;;;;5.89;100.00;99989.47;5041854;28;20089;-76
2024/01/01 09:09:49;;;;;;;9.00;3.10;;;;;;;5.87;100.00;99983.63;5011284;28;20152;-75
2024/01/01 09:12:16;;;;;;;7.63;2.55;;;;;;;5.86;100.00;99987.34;5022287;28;20042;-75
2024/01/01 09:14:41;;;;;;;6.82;2.53;;;;;;;5.85;100.00;99993.72;5033520;28;20110;-76
2024/01/01 09:17:07;;;;;;;8.73;2.78;;;;;;;5.78;100.00;99991.28;5033819;28;20032;-75
2024/01/01 09:19:34;;;;;;;6.70;2.50;;;;;;;5.80;100.00;99993.69;5021880;28;20041;-75
2024/01/01 09:22:00;;;;;;;7.93;2.40;;;;;;;5.80;100.00;99991.03;5025103;28;20028;-73
2024/01/01 09:24:26;;;;;;;10.38;2.88;;;;;;;5.78;100.00;99993.94;5020423;28;20090;-73
2024/01/01 09:26:52;;;;;;;9.70;2.75;;;;;;;5.75;100.00;100003.22;5031130;28;20037;-73
2024/01/01 09:29:17;;;;;;;7.15;2.45;;;;;;;5.73;100.00;100005.34;5007301;28;20177;-74
2024/01/01 09:31:43;;;;;;;7.68;2.58;;;;;;;5.74;100.00;100001.63;5026649;28;20040;-73
2024/01/01 09:34:09;;;;;;;6.07;2.25;;;;;;;5.73;100.00;99993.91;5023869;28;20171;-74
2024/01/01 09:36:34;;;;;;;7.15;2.20;;;;;;;5.73;100.00;100000.03;5038097;28;20036;-74
2024/01/01 09:39:01;;;;;;;9.70;2.72;;;;;;;5.72;100.00;100003.75;5040336;28;20041;-77
2024/01/01 09:41:27;;;;;;;8.80;2.60;;;;;;;5.73;100.00;100002.69;5040836;28;20051;-76
2024/01/01 09:43:53;;;;;;;8.38;3.03;;;;;;;5.72;100.00;99998.44;5046120;28;20406;-76
2024/01/01 09:46:20;;;;;;;7.00;2.15;;;;;;;5.72;100.00;100001.09;5021671;28;20220;-75
2024/01/01 09:48:46;;;;;;;9.88;2.40;;;;;;;5.72;100.00;100001.09;5019548;28;20466;-76
2024/01/01 09:51:13;;;;;;;10.40;2.33;;;;;;;5.71;100.00;99996.81;5021954;28;20200;-76
2024/01/01 09:53:39;;;;;;;11.88;2.42;;;;;;;5.74;100.00;100000.81;5036417;28;20044;-75
2024/01/01 09:56:06;;;;;;;7.72;2.60;;;;;;;5.74;100.00;100004.28;5006277;28;20048;-75
2024/01/01 09:58:41;;;;;;;9.40;3.10;;;;;;;5.74;100.00;100004.28;5045031;28;20041;-75
2024/01/01 10:01:12;;;;;;;13.60;4.10;;;;;;;5.74;100.00;100006.94;5027301;28;20029;-75
2024/01/01 10:03:38;;;;;;;11.07;3.75;;;;;;;5.79;100.00;100005.38;5019229;28;20040;-76
2024/01/01 10:06:11;;;;;;;9.45;3.25;;;;;;;5.81;100.00;100008.56;5029459;28;20041;-77
2024/01/01 10:08:38;;;;;;;10.18;2.92;;;;;;;5.84;100.00;100008.06;5034936;28;20060;-74
2024/01/01 10:11:20;;;;;;;10.05;2.67;;;;;;;5.85;100.00;100004.34;5021270;28;20037;-75
2024/01/01 10:13:47;;;;;;;7.85;2.55;;;;;;;5.88;100.00;100003.84;5036801;28;20045;-73
2024/01/01 10:16:25;;;;;;;10.75;2.38;;;;;;;5.91;100.00;99995.41;5019605;28;20029;-74
2024/01/01 10:18:56;;;;;;;9.90;2.63;;;;;;;5.92;100.00;99994.34;5020450;28;20498;-75
2024/01/01 10:21:30;;;;;;;8.35;2.10;;;;;;;5.95;100.00;100001.78;5000485;28;20036;-76
2024/01/01 10:24:18;;;;;;;10.90;2.33;;;;;;;5.95;100.00;99996.47;5021724;28;20040;-74
2024/01/01 10:26:46;;;;;;;6.25;2.10;;;;;;;5.97;100.00;100005.00;5024488;28;20113;-73
2024/01/01 10:29:13;;;;;;;9.85;2.50;;;;;;;5.98;100.00;99996.75;5017931;28;20044;-75
2024/01/01 10:31:45;;;;;;;5.72;2.03;;;;;;;6.05;100.00;100009.03;5030708;28;20033;-75
2024/01/01 10:34:12;;;;;;;9.57;2.00;;;;;;;6.08;100.00;100006.66;5015668;28;20513;-73
2024/01/01 10:36:40;;;;;;;8.35;2.33;;;;;;;6.13;100.00;100008.53;5019437;28;20037;-74
2024/01/01 10:39:08;;;;;;;10.82;2.47;;;;;;;6.14;100.00;100007.47;5033993;28;20068;-75
2024/01/01 10:41:36;;;;;;;10.60;2.10;;;;;;;6.16;100.00;100010.66;5030348;28;20482;-74
2024/01/01 10:44:10;;;;;;;7.05;2.13;;;;;;;6.17;100.00;100009.63;5031218;28;20406;-73
2024/01/01 10:46:41;;;;;;;7.60;2.28;;;;;;;6.19;100.00;100008.31;5004463;28;20051;-73
2024/01/01 10:49:12;;;;;;;5.60;2.20;;;;;;;6.23;100.00;100016.56;5049371;28;20053;-72
2024/01/01 10:51:44;;;;;;;10.15;2.10;;;;;;;6.25;100.00;100012.59;5035888;28;20038;-75
2024/01/01 10:54:16;;;;;;;6.22;2.20;;;;;;;6.28;100.00;100016.59;5029318;28;20044;-73
2024/01/01 10:57:20;;;;;;;6.68;1.88;;;;;;;6.31;100.00;100025.94;5046394;28;20090;-73
2024/01/01 10:59:48;;;;;;;6.97;2.35;;;;;;;6.33;100.00;100016.63;5043878;28;20561;-73
2024/01/01 11:02:15;;;;;;;9.20;1.88;;;;;;;6.35;100.00;100011.03;5031417;28;20060;-73
2024/01/01 11:04:40;;;;;;;10.98;2.30;;;;;;;6.36;100.00;100018.75;5030903;28;20094;-76
2024/01/01 11:07:06;;;;;;;9.02;1.90;;;;;;;6.38;100.00;100021.16;5023593;28;20049;-75
2024/01/01 11:09:32;;;;;;;13.43;2.33;;;;;;;6.37;100.00;100017.72;5028777;28;20509;-73
2024/01/01 11:12:00;;;;;;;;;;;;;;;6.42;100.00;100022.22;5020767;28;20029;-78
2024/01/01 11:14:44;;;;;;;5.88;1.90;;;;;;;6.44;100.00;100025.44;5043252;28;19917;-76
2024/01/01 11:17:11;;;;;;;7.60;2.25;;;;;;;6.48;100.00;100015.88;5033516;28;20163;-77
2024/01/01 11:19:41;;;;;;;6.53;2.03;;;;;;;6.50;100.00;100021.72;5030601;28;20048;-76
2024/01/01 11:22:29;;;;;;;9.77;2.47;;;;;;;6.53;100.00;100021.22;5021080;28;20780;-74
2024/01/01 11:24:59;;;;;;;7.47;1.90;;;;;;;6.53;100.00;100021.22;5022912;28;20029;-75
2024/01/01 11:27:32;;;;;;;7.40;2.22;;;;;;;6.53;100.00;100024.69;5021750;28;20038;-74